sensor_id;sensor_type;location;lat;lon;timestamp;pressure;altitude;pressure_sealevel;temperature;humidity
71194;BME280;58903;47.210;8.618;2024-01-15T00:00:50;93167.44;;;25.53;40.11
71194;BME280;58903;47.210;8.618;2024-01-15T00:03:18;93167.44;;;25.53;40.03
71194;BME280;58903;47.210;8.618;2024-01-15T00:05:47;93163.75;;;25.51;40.28
71194;BME280;58903;47.210;8.618;2024-01-15T00:08:15;93164.81;;;25.48;39.70
71194;BME280;58903;47.210;8.618;2024-01-15T00:10:46;93148.09;;;25.46;40.54
71194;BME280;58903;47.210;8.618;2024-01-15T00:13:36;93146.28;;;25.48;40.04
71194;BME280;58903;47.210;8.618;2024-01-15T00:16:05;93141.00;;;25.50;39.98
71194;BME280;58903;47.210;8.618;2024-01-15T00:18:33;93132.19;;;25.52;39.87
71194;BME280;58903;47.210;8.618;2024-01-15T00:21:11;93130.53;;;25.49;39.92
71194;BME280;58903;47.210;8.618;2024-01-15T00:24:10;93150.00;;;25.51;40.36
71194;BME280;58903;47.210;8.618;2024-01-15T00:26:36;93135.47;;;25.50;39.56
71194;BME280;58903;47.210;8.618;2024-01-15T00:29:08;93132.91;;;25.52;39.54
71194;BME280;58903;47.210;8.618;2024-01-15T00:31:49;93125.22;;;25.51;39.43
71194;BME280;58903;47.210;8.618;2024-01-15T00:34:25;93117.47;;;25.49;39.89
71194;BME280;58903;47.210;8.618;2024-01-15T00:36:52;93116.22;;;25.50;39.48
71194;BME280;58903;47.210;8.618;2024-01-15T00:39:19;93115.28;;;25.48;39.59
71194;BME280;58903;47.210;8.618;2024-01-15T00:41:46;93116.22;;;25.50;39.78
71194;BME280;58903;47.210;8.618;2024-01-15T00:44:12;93109.97;;;25.50;39.51
71194;BME280;58903;47.210;8.618;2024-01-15T00:46:46;93106.47;;;25.49;39.56
71194;BME280;58903;47.210;8.618;2024-01-15T00:49:36;93099.50;;;25.48;39.60
71194;BME280;58903;47.210;8.618;2024-01-15T00:52:02;93103.72;;;25.49;40.03
71194;BME280;58903;47.210;8.618;2024-01-15T00:54:33;93095.25;;;25.47;39.47
71194;BME280;58903;47.210;8.618;2024-01-15T00:57:01;93096.19;;;25.50;40.14
71194;BME280;58903;47.210;8.618;2024-01-15T00:59:27;93096.19;;;25.50;39.93
71194;BME280;58903;47.210;8.618;2024-01-15T01:01:56;93093.78;;;25.46;39.34
71194;BME280;58903;47.210;8.618;2024-01-15T01:04:23;93085.00;;;25.48;39.04
71194;BME280;58903;47.210;8.618;2024-01-15T01:06:54;93087.00;;;25.47;39.25
71194;BME280;58903;47.210;8.618;2024-01-15T01:09:41;93098.75;;;25.48;39.33
71194;BME280;58903;47.210;8.618;2024-01-15T01:12:42;93103.00;;;25.49;38.98
71194;BME280;58903;47.210;8.618;2024-01-15T01:15:23;93109.22;;;25.49;39.17
71194;BME280;58903;47.210;8.618;2024-01-15T01:17:58;93115.81;;;25.46;39.29
71194;BME280;58903;47.210;8.618;2024-01-15T01:20:32;93116.56;;;25.47;39.19
71194;BME280;58903;47.210;8.618;2024-01-15T01:23:03;93112.31;;;25.46;39.03
71194;BME280;58903;47.210;8.618;2024-01-15T01:25:31;93112.31;;;25.46;39.63
71194;BME280;58903;47.210;8.618;2024-01-15T01:27:57;93103.31;;;25.45;39.90
71194;BME280;58903;47.210;8.618;2024-01-15T01:30:23;93103.66;;;25.41;39.79
71194;BME280;58903;47.210;8.618;2024-01-15T01:32:50;93110.63;;;25.42;39.21
71194;BME280;58903;47.210;8.618;2024-01-15T01:35:25;93108.09;;;25.45;39.92
71194;BME280;58903;47.210;8.618;2024-01-15T01:37:53;93103.13;;;25.43;39.91
71194;BME280;58903;47.210;8.618;2024-01-15T01:40:21;93102.38;;;25.42;39.98
71194;BME280;58903;47.210;8.618;2024-01-15T01:42:48;93095.94;;;25.40;39.01
71194;BME280;58903;47.210;8.618;2024-01-15T01:45:16;93102.50;;;25.37;39.71
71194;BME280;58903;47.210;8.618;2024-01-15T01:47:43;93105.66;;;25.41;38.97
71194;BME280;58903;47.210;8.618;2024-01-15T01:50:13;93106.41;;;25.41;39.23
71194;BME280;58903;47.210;8.618;2024-01-15T01:52:41;93098.91;;;25.42;39.76
71194;BME280;58903;47.210;8.618;2024-01-15T01:55:09;93096.16;;;25.42;39.72
71194;BME280;58903;47.210;8.618;2024-01-15T01:57:36;93086.94;;;25.39;39.29
71194;BME280;58903;47.210;8.618;2024-01-15T02:00:04;93087.13;;;25.41;39.58
71194;BME280;58903;47.210;8.618;2024-01-15T02:02:33;93098.91;;;25.42;38.74
71194;BME280;58903;47.210;8.618;2024-01-15T02:05:03;93098.69;;;25.40;39.14
71194;BME280;58903;47.210;8.618;2024-01-15T02:07:34;93103.44;;;25.39;39.14
71194;BME280;58903;47.210;8.618;2024-01-15T02:10:00;93113.38;;;25.42;39.79
71194;BME280;58903;47.210;8.618;2024-01-15T02:12:29;93111.16;;;25.41;39.70
71194;BME280;58903;47.210;8.618;2024-01-15T02:14:59;93106.19;;;25.39;39.08
71194;BME280;58903;47.210;8.618;2024-01-15T02:17:34;93102.72;;;25.39;39.29
71194;BME280;58903;47.210;8.618;2024-01-15T02:20:05;93105.47;;;25.39;38.89
71194;BME280;58903;47.210;8.618;2024-01-15T02:22:48;93112.69;;;25.42;38.84
71194;BME280;58903;47.210;8.618;2024-01-15T02:25:14;93107.66;;;25.40;39.32
71194;BME280;58903;47.210;8.618;2024-01-15T02:27:50;93115.22;;;25.40;39.01
71194;BME280;58903;47.210;8.618;2024-01-15T02:30:16;93119.41;;;25.41;39.42
71194;BME280;58903;47.210;8.618;2024-01-15T02:33:11;93136.69;;;25.41;39.63
71194;BME280;58903;47.210;8.618;2024-01-15T02:35:46;93125.47;;;25.39;39.71
71194;BME280;58903;47.210;8.618;2024-01-15T02:38:16;93128.97;;;25.40;39.00
71194;BME280;58903;47.210;8.618;2024-01-15T02:41:11;93120.38;;;25.43;38.70
71194;BME280;58903;47.210;8.618;2024-01-15T02:43:40;93119.63;;;25.43;38.89
71194;BME280;58903;47.210;8.618;2024-01-15T02:46:18;93119.63;;;25.43;39.28
71194;BME280;58903;47.210;8.618;2024-01-15T02:48:54;93120.94;;;25.42;39.27
71194;BME280;58903;47.210;8.618;2024-01-15T02:51:25;93102.72;;;25.39;39.14
71194;BME280;58903;47.210;8.618;2024-01-15T02:54:19;93104.41;;;25.42;39.12
71194;BME280;58903;47.210;8.618;2024-01-15T02:56:47;93106.41;;;25.41;38.84
71194;BME280;58903;47.210;8.618;2024-01-15T02:59:35;93112.69;;;25.42;38.72
71194;BME280;58903;47.210;8.618;2024-01-15T03:02:13;93113.16;;;25.40;38.81
71194;BME280;58903;47.210;8.618;2024-01-15T03:04:43;93104.00;;;25.38;38.96
71194;BME280;58903;47.210;8.618;2024-01-15T03:07:28;93107.66;;;25.40;38.87
71194;BME280;58903;47.210;8.618;2024-01-15T03:09:54;93112.44;;;25.40;38.66
71194;BME280;58903;47.210;8.618;2024-01-15T03:12:19;93122.91;;;25.41;39.36
71194;BME280;58903;47.210;8.618;2024-01-15T03:14:58;93122.16;;;25.41;39.04
71194;BME280;58903;47.210;8.618;2024-01-15T03:17:26;93126.94;;;25.40;39.20
71194;BME280;58903;47.210;8.618;2024-01-15T03:20:01;93126.22;;;25.40;38.60
71194;BME280;58903;47.210;8.618;2024-01-15T03:22:27;93131.94;;;25.42;39.20
71194;BME280;58903;47.210;8.618;2024-01-15T03:24:54;93115.72;;;25.38;38.51
71194;BME280;58903;47.210;8.618;2024-01-15T03:27:20;93123.47;;;25.40;39.30
71194;BME280;58903;47.210;8.618;2024-01-15T03:29:50;93137.03;;;25.38;39.53
71194;BME280;58903;47.210;8.618;2024-01-15T03:32:18;93135.72;;;25.39;38.56
71194;BME280;58903;47.210;8.618;2024-01-15T03:34:48;93117.75;;;25.38;39.23
71194;BME280;58903;47.210;8.618;2024-01-15T03:37:25;93121.97;;;25.39;38.59
71194;BME280;58903;47.210;8.618;2024-01-15T03:39:52;93132.97;;;25.39;38.61
71194;BME280;58903;47.210;8.618;2024-01-15T03:42:22;93117.22;;;25.39;39.32
71194;BME280;58903;47.210;8.618;2024-01-15T03:44:50;93123.47;;;25.40;38.71
71194;BME280;58903;47.210;8.618;2024-01-15T03:47:26;93119.22;;;25.39;39.14
71194;BME280;58903;47.210;8.618;2024-01-15T03:50:25;93110.41;;;25.40;38.11
71194;BME280;58903;47.210;8.618;2024-01-15T03:53:07;93106.75;;;25.38;38.46
71194;BME280;58903;47.210;8.618;2024-01-15T03:55:42;93116.66;;;25.41;39.15
71194;BME280;58903;47.210;8.618;2024-01-15T03:58:16;93117.94;;;25.40;38.80
71194;BME280;58903;47.210;8.618;2024-01-15T04:00:48;93108.00;;;25.37;38.32
71194;BME280;58903;47.210;8.618;2024-01-15T04:03:14;93108.22;;;25.39;38.23
71194;BME280;58903;47.210;8.618;2024-01-15T04:05:44;93111.50;;;25.37;38.68
71194;BME280;58903;47.210;8.618;2024-01-15T04:08:12;93108.22;;;25.39;38.18
71194;BME280;58903;47.210;8.618;2024-01-15T04:10:47;93107.47;;;25.38;38.48
71194;BME280;58903;47.210;8.618;2024-01-15T04:13:15;93109.28;;;25.36;39.08
71194;BME280;58903;47.210;8.618;2024-01-15T04:15:43;93104.50;;;25.36;39.15
71194;BME280;58903;47.210;8.618;2024-01-15T04:18:16;93107.28;;;25.36;38.57
71194;BME280;58903;47.210;8.618;2024-01-15T04:20:44;93096.25;;;25.36;38.82
71194;BME280;58903;47.210;8.618;2024-01-15T04:23:11;93098.28;;;25.36;38.77
71194;BME280;58903;47.210;8.618;2024-01-15T04:25:37;93096.47;;;25.38;38.73
71194;BME280;58903;47.210;8.618;2024-01-15T04:28:03;93096.06;;;25.34;38.84
71194;BME280;58903;47.210;8.618;2024-01-15T04:30:30;93087.25;;;25.36;38.93
71194;BME280;58903;47.210;8.618;2024-01-15T04:32:56;93097.00;;;25.37;38.89
71194;BME280;58903;47.210;8.618;2024-01-15T04:35:22;93096.81;;;25.35;38.23
71194;BME280;58903;47.210;8.618;2024-01-15T04:37:49;93099.75;;;25.37;38.98
71194;BME280;58903;47.210;8.618;2024-01-15T04:40:15;93099.00;;;25.36;38.10
71194;BME280;58903;47.210;8.618;2024-01-15T04:42:51;93105.25;;;25.37;38.57
71194;BME280;58903;47.210;8.618;2024-01-15T04:45:18;93107.47;;;25.38;38.20
71194;BME280;58903;47.210;8.618;2024-01-15T04:47:54;93096.47;;;25.38;38.65
71194;BME280;58903;47.210;8.618;2024-01-15T04:50:21;93110.97;;;25.39;38.33
71194;BME280;58903;47.210;8.618;2024-01-15T04:52:49;93098.69;;;25.40;38.00
71194;BME280;58903;47.210;8.618;2024-01-15T04:55:15;93106.75;;;25.38;38.21
71194;BME280;58903;47.210;8.618;2024-01-15T04:58:01;93108.22;;;25.39;38.91
71194;BME280;58903;47.210;8.618;2024-01-15T05:00:29;93108.00;;;25.37;38.17
71194;BME280;58903;47.210;8.618;2024-01-15T05:02:56;93102.72;;;25.39;37.91
71194;BME280;58903;47.210;8.618;2024-01-15T05:05:29;93095.00;;;25.37;38.33
71194;BME280;58903;47.210;8.618;2024-01-15T05:08:01;93108.22;;;25.39;38.51
71194;BME280;58903;47.210;8.618;2024-01-15T05:10:29;93102.72;;;25.39;38.36
71194;BME280;58903;47.210;8.618;2024-01-15T05:12:57;93107.81;;;25.35;38.95
71194;BME280;58903;47.210;8.618;2024-01-15T05:15:25;93100.50;;;25.37;38.20
71194;BME280;58903;47.210;8.618;2024-01-15T05:17:57;93104.00;;;25.38;38.09
71194;BME280;58903;47.210;8.618;2024-01-15T05:20:28;93099.22;;;25.38;38.51
71194;BME280;58903;47.210;8.618;2024-01-15T05:23:05;93099.75;;;25.37;38.98
71194;BME280;58903;47.210;8.618;2024-01-15T05:25:49;93119.97;;;25.39;38.82
71194;BME280;58903;47.210;8.618;2024-01-15T05:28:15;93108.97;;;25.39;38.75
71194;BME280;58903;47.210;8.618;2024-01-15T05:30:41;93109.03;;;25.47;42.84
71194;BME280;58903;47.210;8.618;2024-01-15T05:33:06;93109.63;;;25.53;42.24
71194;BME280;58903;47.210;8.618;2024-01-15T05:35:34;93110.34;;;25.54;42.19
71194;BME280;58903;47.210;8.618;2024-01-15T05:38:02;93111.28;;;25.56;41.88
71194;BME280;58903;47.210;8.618;2024-01-15T05:40:28;93114.03;;;25.56;41.38
71194;BME280;58903;47.210;8.618;2024-01-15T05:42:54;93122.31;;;25.56;40.88
71194;BME280;58903;47.210;8.618;2024-01-15T05:45:58;93112.97;;;25.59;40.15
71194;BME280;58903;47.210;8.618;2024-01-15T05:48:52;93111.53;;;25.66;39.76
71194;BME280;58903;47.210;8.618;2024-01-15T05:51:30;93105.09;;;25.63;38.69
71194;BME280;58903;47.210;8.618;2024-01-15T05:53:56;93111.09;;;25.54;38.26
71194;BME280;58903;47.210;8.618;2024-01-15T05:56:30;93100.44;;;25.51;38.28
71194;BME280;58903;47.210;8.618;2024-01-15T05:58:57;93106.25;;;25.47;38.94
71194;BME280;58903;47.210;8.618;2024-01-15T06:01:23;93103.31;;;25.45;39.12
71194;BME280;58903;47.210;8.618;2024-01-15T06:03:49;93098.44;;;25.51;38.22
71194;BME280;58903;47.210;8.618;2024-01-15T06:06:18;93102.50;;;25.58;38.25
71194;BME280;58903;47.210;8.618;2024-01-15T06:08:43;93102.69;;;25.60;39.02
71194;BME280;58903;47.210;8.618;2024-01-15T06:11:13;93101.75;;;25.57;38.37
71194;BME280;58903;47.210;8.618;2024-01-15T06:13:48;93101.56;;;25.55;38.20
71194;BME280;58903;47.210;8.618;2024-01-15T06:16:15;93103.56;;;25.55;38.71
71194;BME280;58903;47.210;8.618;2024-01-15T06:18:42;93112.59;;;25.55;38.83
71194;BME280;58903;47.210;8.618;2024-01-15T06:21:17;93102.63;;;25.52;39.13
71194;BME280;58903;47.210;8.618;2024-01-15T06:23:43;93111.69;;;25.60;38.29
71194;BME280;58903;47.210;8.618;2024-01-15T06:26:12;93112.63;;;25.63;38.42
71194;BME280;58903;47.210;8.618;2024-01-15T06:28:38;93108.41;;;25.62;38.24
71194;BME280;58903;47.210;8.618;2024-01-15T06:31:06;93100.84;;;25.62;39.10
71194;BME280;58903;47.210;8.618;2024-01-15T06:33:32;93104.03;;;25.66;38.69
71194;BME280;58903;47.210;8.618;2024-01-15T06:36:00;93104.75;;;25.67;37.95
71194;BME280;58903;47.210;8.618;2024-01-15T06:38:26;93112.47;;;25.68;38.19
71194;BME280;58903;47.210;8.618;2024-01-15T06:40:52;93106.97;;;25.68;37.75
71194;BME280;58903;47.210;8.618;2024-01-15T06:43:21;93100.72;;;25.68;37.29
71194;BME280;58903;47.210;8.618;2024-01-15T06:45:47;93109.53;;;25.66;36.45
71194;BME280;58903;47.210;8.618;2024-01-15T06:48:15;93096.47;;;25.67;37.54
71194;BME280;58903;47.210;8.618;2024-01-15T06:50:44;93098.09;;;25.62;37.52
71194;BME280;58903;47.210;8.618;2024-01-15T06:53:21;93092.81;;;25.64;37.73
71194;BME280;58903;47.210;8.618;2024-01-15T06:56:00;93088.94;;;25.60;37.16
71194;BME280;58903;47.210;8.618;2024-01-15T06:58:33;93096.66;;;25.61;36.72
71194;BME280;58903;47.210;8.618;2024-01-15T07:00:59;93093.88;;;25.61;37.13
71194;BME280;58903;47.210;8.618;2024-01-15T07:03:26;93093.00;;;25.66;37.57
71194;BME280;58903;47.210;8.618;2024-01-15T07:05:54;93092.25;;;25.66;37.10
71194;BME280;58903;47.210;8.618;2024-01-15T07:08:29;93089.31;;;25.64;38.20
71194;BME280;58903;47.210;8.618;2024-01-15T07:11:21;93096.16;;;25.70;43.89
71194;BME280;58903;47.210;8.618;2024-01-15T07:13:57;93098.53;;;25.74;47.42
71194;BME280;58903;47.210;8.618;2024-01-15T07:16:35;93092.91;;;25.79;47.17
71194;BME280;58903;47.210;8.618;2024-01-15T07:19:13;93096.56;;;25.82;49.08
71194;BME280;58903;47.210;8.618;2024-01-15T07:21:51;93108.00;;;25.86;49.17
71194;BME280;58903;47.210;8.618;2024-01-15T07:24:17;93097.16;;;25.88;47.14
71194;BME280;58903;47.210;8.618;2024-01-15T07:26:45;93091.09;;;25.89;44.21
71194;BME280;58903;47.210;8.618;2024-01-15T07:29:11;93097.16;;;25.88;42.59
71194;BME280;58903;47.210;8.618;2024-01-15T07:31:49;93098.97;;;25.85;42.76
71194;BME280;58903;47.210;8.618;2024-01-15T07:34:15;93100.41;;;25.79;41.10
71194;BME280;58903;47.210;8.618;2024-01-15T07:36:46;93096.16;;;25.70;39.03
71194;BME280;58903;47.210;8.618;2024-01-15T07:39:14;93099.00;;;25.57;38.23
71194;BME280;58903;47.210;8.618;2024-01-15T07:41:49;93103.13;;;25.43;34.75
71194;BME280;58903;47.210;8.618;2024-01-15T07:44:49;93101.03;;;25.36;33.76
71194;BME280;58903;47.210;8.618;2024-01-15T07:47:17;93106.34;;;25.34;34.25
71194;BME280;58903;47.210;8.618;2024-01-15T07:49:54;93096.81;;;25.35;34.28
71194;BME280;58903;47.210;8.618;2024-01-15T07:52:40;93095.31;;;25.34;33.00
71194;BME280;58903;47.210;8.618;2024-01-15T07:55:09;93097.16;;;25.31;33.68
71194;BME280;58903;47.210;8.618;2024-01-15T07:57:36;93085.81;;;25.35;33.58
71194;BME280;58903;47.210;8.618;2024-01-15T08:00:15;93094.25;;;25.37;32.93
71194;BME280;58903;47.210;8.618;2024-01-15T08:02:41;93098.28;;;25.36;32.96
71194;BME280;58903;47.210;8.618;2024-01-15T08:05:07;93095.53;;;25.36;32.91
71194;BME280;58903;47.210;8.618;2024-01-15T08:07:33;93096.63;;;25.33;33.96
71194;BME280;58903;47.210;8.618;2024-01-15T08:10:05;93093.84;;;25.33;33.25
71194;BME280;58903;47.210;8.618;2024-01-15T08:13:02;93105.94;;;25.30;33.30
71194;BME280;58903;47.210;8.618;2024-01-15T08:15:29;93109.63;;;25.32;33.94
71194;BME280;58903;47.210;8.618;2024-01-15T08:17:57;93112.38;;;25.32;34.35
71194;BME280;58903;47.210;8.618;2024-01-15T08:20:25;93109.81;;;25.34;33.63
71194;BME280;58903;47.210;8.618;2024-01-15T08:23:04;93114.59;;;25.34;35.34
71194;BME280;58903;47.210;8.618;2024-01-15T08:25:40;93106.53;;;25.36;34.87
71194;BME280;58903;47.210;8.618;2024-01-15T08:28:05;93112.03;;;25.36;34.80
71194;BME280;58903;47.210;8.618;2024-01-15T08:30:31;93111.44;;;25.30;35.71
71194;BME280;58903;47.210;8.618;2024-01-15T08:32:57;93108.50;;;25.28;35.52
71194;BME280;58903;47.210;8.618;2024-01-15T08:35:33;93112.38;;;25.32;35.29
71194;BME280;58903;47.210;8.618;2024-01-15T08:41:16;93110.38;;;25.33;35.42
71194;BME280;58903;47.210;8.618;2024-01-15T08:44:03;93109.97;;;25.29;35.87
71194;BME280;58903;47.210;8.618;2024-01-15T08:47:06;93109.81;;;25.34;35.19
71194;BME280;58903;47.210;8.618;2024-01-15T08:49:34;93106.34;;;25.34;35.92
71194;BME280;58903;47.210;8.618;2024-01-15T08:52:02;93112.03;;;25.36;35.57
71194;BME280;58903;47.210;8.618;2024-01-15T08:54:28;93112.44;;;25.40;36.00
71194;BME280;58903;47.210;8.618;2024-01-15T08:57:01;93113.16;;;25.40;36.17
71194;BME280;58903;47.210;8.618;2024-01-15T08:59:48;93115.22;;;25.40;36.12
71194;BME280;58903;47.210;8.618;2024-01-15T09:02:15;93112.19;;;25.30;35.94
71194;BME280;58903;47.210;8.618;2024-01-15T09:04:49;93116.94;;;25.30;35.54
71194;BME280;58903;47.210;8.618;2024-01-15T09:07:17;93120.25;;;25.28;35.95
71194;BME280;58903;47.210;8.618;2024-01-15T09:09:48;93119.84;;;25.24;35.97
71194;BME280;58903;47.210;8.618;2024-01-15T09:12:13;93119.31;;;25.26;36.34
71194;BME280;58903;47.210;8.618;2024-01-15T09:14:41;93123.75;;;25.29;36.06
71194;BME280;58903;47.210;8.618;2024-01-15T09:17:18;93122.81;;;25.26;36.42
71194;BME280;58903;47.210;8.618;2024-01-15T09:19:56;93124.69;;;25.31;36.78
71194;BME280;58903;47.210;8.618;2024-01-15T09:22:23;93137.16;;;25.32;36.52
71194;BME280;58903;47.210;8.618;2024-01-15T09:24:49;93136.59;;;25.34;36.36
71194;BME280;58903;47.210;8.618;2024-01-15T09:27:15;93124.69;;;25.31;37.00
71194;BME280;58903;47.210;8.618;2024-01-15T09:29:41;93138.28;;;25.37;36.65
71194;BME280;58903;47.210;8.618;2024-01-15T09:32:08;93137.34;;;25.34;37.03
71194;BME280;58903;47.210;8.618;2024-01-15T09:34:36;93128.91;;;25.32;36.24
71194;BME280;58903;47.210;8.618;2024-01-15T09:37:13;93135.53;;;25.37;37.45
71194;BME280;58903;47.210;8.618;2024-01-15T09:39:42;93129.09;;;25.34;37.05
71194;BME280;58903;47.210;8.618;2024-01-15T09:42:22;93124.13;;;25.33;36.65
71194;BME280;58903;47.210;8.618;2024-01-15T09:45:07;93126.34;;;25.34;36.93
71194;BME280;58903;47.210;8.618;2024-01-15T09:47:41;93140.09;;;25.34;36.62
71194;BME280;58903;47.210;8.618;2024-01-15T09:50:16;93139.91;;;25.32;36.94
71194;BME280;58903;47.210;8.618;2024-01-15T09:52:44;93121.19;;;25.31;36.72
71194;BME280;58903;47.210;8.618;2024-01-15T09:55:13;93137.16;;;25.32;37.37
71194;BME280;58903;47.210;8.618;2024-01-15T09:57:44;93128.91;;;25.32;37.54
71194;BME280;58903;47.210;8.618;2024-01-15T10:00:13;93134.78;;;25.36;36.78
71194;BME280;58903;47.210;8.618;2024-01-15T10:02:41;93137.34;;;25.34;36.76
71194;BME280;58903;47.210;8.618;2024-01-15T10:05:14;93138.84;;;25.35;37.22
71194;BME280;58903;47.210;8.618;2024-01-15T10:07:45;93125.06;;;25.35;36.79
71194;BME280;58903;47.210;8.618;2024-01-15T10:10:21;93127.28;;;25.37;37.23
71194;BME280;58903;47.210;8.618;2024-01-15T10:13:05;93113.31;;;25.35;37.09
71194;BME280;58903;47.210;8.618;2024-01-15T10:15:37;93109.28;;;25.36;37.57
71194;BME280;58903;47.210;8.618;2024-01-15T10:18:05;93110.03;;;25.36;37.06
71194;BME280;58903;47.210;8.618;2024-01-15T10:20:45;93109.09;;;25.34;37.69
71194;BME280;58903;47.210;8.618;2024-01-15T10:23:11;93099.75;;;25.37;36.97
71194;BME280;58903;47.210;8.618;2024-01-15T10:25:38;93104.72;;;25.38;36.93
71194;BME280;58903;47.210;8.618;2024-01-15T10:28:06;93103.13;;;25.43;37.65
71194;BME280;58903;47.210;8.618;2024-01-15T10:30:32;93089.50;;;25.37;37.51
71194;BME280;58903;47.210;8.618;2024-01-15T10:33:03;93087.69;;;25.40;37.89
71194;BME280;58903;47.210;8.618;2024-01-15T10:35:35;93076.88;;;25.42;36.86
71194;BME280;58903;47.210;8.618;2024-01-15T10:38:09;93078.88;;;25.41;37.13
71194;BME280;58903;47.210;8.618;2024-01-15T10:40:36;93077.09;;;25.44;37.44
71194;BME280;58903;47.210;8.618;2024-01-15T10:43:08;93086.59;;;25.43;37.33
71194;BME280;58903;47.210;8.618;2024-01-15T10:45:38;93075.91;;;25.39;37.67
71194;BME280;58903;47.210;8.618;2024-01-15T10:48:40;93065.47;;;25.38;37.23
71194;BME280;58903;47.210;8.618;2024-01-15T10:51:41;93074.25;;;25.36;37.90
71194;BME280;58903;47.210;8.618;2024-01-15T10:54:19;93071.28;;;25.34;37.27
71194;BME280;58903;47.210;8.618;2024-01-15T10:57:04;93065.25;;;25.36;37.70
71194;BME280;58903;47.210;8.618;2024-01-15T11:00:07;93060.69;;;25.38;36.99
71194;BME280;58903;47.210;8.618;2024-01-15T11:03:03;93069.47;;;25.37;37.46
71194;BME280;58903;47.210;8.618;2024-01-15T11:05:53;93062.50;;;25.36;37.81
71194;BME280;58903;47.210;8.618;2024-01-15T11:08:20;93065.47;;;25.38;37.51
71194;BME280;58903;47.210;8.618;2024-01-15T11:10:55;93067.66;;;25.39;37.36
71194;BME280;58903;47.210;8.618;2024-01-15T11:14:00;93078.13;;;25.41;37.38
71194;BME280;58903;47.210;8.618;2024-01-15T11:17:06;93065.88;;;25.42;36.80
71194;BME280;58903;47.210;8.618;2024-01-15T11:19:52;93070.09;;;25.43;37.17
71194;BME280;58903;47.210;8.618;2024-01-15T11:24:57;93056.09;;;25.41;37.53
71194;BME280;58903;47.210;8.618;2024-01-15T11:27:54;93058.56;;;25.45;37.74
71194;BME280;58903;47.210;8.618;2024-01-15T11:30:29;93055.81;;;25.45;37.44
71194;BME280;58903;47.210;8.618;2024-01-15T11:33:34;93061.50;;;25.47;37.75
71194;BME280;58903;47.210;8.618;2024-01-15T11:36:01;93057.81;;;25.44;37.00
71194;BME280;58903;47.210;8.618;2024-01-15T11:38:27;93050.31;;;25.45;37.92
71194;BME280;58903;47.210;8.618;2024-01-15T11:41:23;93047.00;;;25.46;37.12
71194;BME280;58903;47.210;8.618;2024-01-15T11:43:58;93050.13;;;25.50;37.47
71194;BME280;58903;47.210;8.618;2024-01-15T11:56:33;93035.31;;;25.53;37.58
71194;BME280;58903;47.210;8.618;2024-01-15T11:59:18;93035.50;;;25.55;37.05
71194;BME280;58903;47.210;8.618;2024-01-15T12:01:45;93036.00;;;25.54;37.43
71194;BME280;58903;47.210;8.618;2024-01-15T12:04:21;93035.50;;;25.55;37.32
71194;BME280;58903;47.210;8.618;2024-01-15T12:06:48;93030.91;;;25.58;36.91
71194;BME280;58903;47.210;8.618;2024-01-15T12:09:28;93027.63;;;25.59;36.83
71194;BME280;58903;47.210;8.618;2024-01-15T12:12:11;93021.38;;;25.59;36.31
71194;BME280;58903;47.210;8.618;2024-01-15T12:14:45;93019.91;;;25.58;35.82
71194;BME280;58903;47.210;8.618;2024-01-15T12:17:21;93012.38;;;25.58;35.68
71194;BME280;58903;47.210;8.618;2024-01-15T12:19:47;93015.84;;;25.59;36.19
71194;BME280;58903;47.210;8.618;2024-01-15T12:22:13;93019.16;;;25.57;34.75
71194;BME280;58903;47.210;8.618;2024-01-15T12:24:41;93021.38;;;25.59;34.82
71194;BME280;58903;47.210;8.618;2024-01-15T12:27:09;93009.59;;;25.58;34.82
71194;BME280;58903;47.210;8.618;2024-01-15T12:29:44;93004.09;;;25.58;35.14
71194;BME280;58903;47.210;8.618;2024-01-15T12:32:21;93003.56;;;25.60;35.18
71194;BME280;58903;47.210;8.618;2024-01-15T12:34:54;93003.03;;;25.61;34.72
71194;BME280;58903;47.210;8.618;2024-01-15T12:37:30;93009.81;;;25.60;34.74
71194;BME280;58903;47.210;8.618;2024-01-15T12:39:58;93011.28;;;25.61;35.18
71194;BME280;58903;47.210;8.618;2024-01-15T12:42:25;93019.53;;;25.61;35.10
71194;BME280;58903;47.210;8.618;2024-01-15T12:45:00;93014.41;;;25.58;35.58
71194;BME280;58903;47.210;8.618;2024-01-15T12:47:26;93019.53;;;25.61;35.42
71194;BME280;58903;47.210;8.618;2024-01-15T12:49:53;93017.34;;;25.60;35.37
71194;BME280;58903;47.210;8.618;2024-01-15T12:52:29;93023.56;;;25.60;35.47
71194;BME280;58903;47.210;8.618;2024-01-15T12:55:03;93016.59;;;25.59;35.12
71194;BME280;58903;47.210;8.618;2024-01-15T12:57:33;93008.53;;;25.61;35.68
71194;BME280;58903;47.210;8.618;2024-01-15T13:00:09;92992.00;;;25.61;35.31
71194;BME280;58903;47.210;8.618;2024-01-15T13:02:46;92989.81;;;25.60;35.98
71194;BME280;58903;47.210;8.618;2024-01-15T13:05:12;92993.47;;;25.62;35.50
71194;BME280;58903;47.210;8.618;2024-01-15T13:07:39;92983.56;;;25.59;35.69
71194;BME280;58903;47.210;8.618;2024-01-15T13:10:05;92972.94;;;25.63;35.52
71194;BME280;58903;47.210;8.618;2024-01-15T13:12:37;92974.41;;;25.64;35.89
71194;BME280;58903;47.210;8.618;2024-01-15T13:15:04;92984.50;;;25.62;35.63
71194;BME280;58903;47.210;8.618;2024-01-15T13:17:30;92985.94;;;25.63;35.72
71194;BME280;58903;47.210;8.618;2024-01-15T13:19:56;92976.22;;;25.62;35.37
71194;BME280;58903;47.210;8.618;2024-01-15T13:22:23;92988.72;;;25.63;35.92
71194;BME280;58903;47.210;8.618;2024-01-15T13:24:55;92985.94;;;25.63;36.27
71194;BME280;58903;47.210;8.618;2024-01-15T13:27:22;92974.38;;;25.57;35.85
71194;BME280;58903;47.210;8.618;2024-01-15T13:29:50;92989.44;;;25.63;36.04
71194;BME280;58903;47.210;8.618;2024-01-15T13:32:24;92986.16;;;25.65;36.25
71194;BME280;58903;47.210;8.618;2024-01-15T13:35:06;92995.69;;;25.64;35.87
71194;BME280;58903;47.210;8.618;2024-01-15T13:37:35;92998.25;;;25.62;36.44
71194;BME280;58903;47.210;8.618;2024-01-15T13:40:04;92996.03;;;25.60;36.44
71194;BME280;58903;47.210;8.618;2024-01-15T13:42:32;92992.91;;;25.56;36.03
71194;BME280;58903;47.210;8.618;2024-01-15T13:45:00;93003.03;;;25.61;36.73